createdAt,value
2019-02-25T00:00:03.691Z,100.1
2019-02-25T00:01:03.522Z,100.1
2019-02-25T00:02:03.045Z,98.9
2019-02-25T00:03:03.534Z,99.1
2019-02-25T00:04:03.758Z,98.9
2019-02-25T00:05:03.514Z,98.9
2019-02-25T00:06:02.950Z,99.8
2019-02-25T00:07:03.456Z,100.5
2019-02-25T00:08:03.767Z,98.4
2019-02-25T00:09:03.518Z,98.9
2019-02-25T00:10:03.854Z,97.5
2019-02-25T00:11:03.227Z,98
2019-02-25T00:12:03.839Z,97.7
2019-02-25T00:13:03.414Z,97.3
2019-02-25T00:14:02.853Z,97.5
2019-02-25T00:15:03.578Z,97
2019-02-25T00:16:03.389Z,96.3
2019-02-25T00:17:03.468Z,96.3
2019-02-25T00:18:03.017Z,98.7
2019-02-25T00:19:03.424Z,98.2
2019-02-25T00:20:03.457Z,98.9
2019-02-25T00:21:03.728Z,98.7
2019-02-25T00:22:03.309Z,97.3
2019-02-25T00:23:03.532Z,97.5
2019-02-25T00:24:03.137Z,97.3
2019-02-25T00:25:03.664Z,96.8
2019-02-25T00:26:02.873Z,97.5
2019-02-25T00:27:03.358Z,97.7
2019-02-25T00:28:03.895Z,97.3
2019-02-25T00:29:03.509Z,97.5
2019-02-25T00:30:03.108Z,98.4
2019-02-25T00:31:03.465Z,95.6
2019-02-25T00:32:03.741Z,97.7
2019-02-25T00:33:03.435Z,97
2019-02-25T00:34:03.495Z,98.4
2019-02-25T00:35:03.401Z,96.6
2019-02-25T00:36:03.890Z,98
2019-02-25T00:37:03.604Z,98.9
2019-02-25T00:38:03.830Z,97.3
2019-02-25T00:39:03.399Z,96.1
2019-02-25T00:40:03.045Z,94.7
2019-02-25T00:41:03.142Z,94.5
2019-02-25T00:42:03.231Z,94
2019-02-25T00:43:02.971Z,93.3
2019-02-25T00:44:03.461Z,93.1
2019-02-25T00:45:03.498Z,94.7
2019-02-25T00:46:03.090Z,92.6
2019-02-25T00:47:03.821Z,92.6
2019-02-25T00:48:03.805Z,93.1
2019-02-25T00:49:02.881Z,92.6
2019-02-25T00:50:03.861Z,92.8
2019-02-25T00:51:03.100Z,92.1
2019-02-25T00:52:03.334Z,93.3
2019-02-25T00:53:03.741Z,93.1
2019-02-25T00:54:03.208Z,94
2019-02-25T00:55:03.397Z,96.1
2019-02-25T00:56:03.071Z,94.2
2019-02-25T00:57:03.630Z,95.9
2019-02-25T00:58:03.179Z,95.9
2019-02-25T00:59:03.189Z,96.6
2019-02-25T01:00:03.725Z,95.6
2019-02-25T01:01:03.629Z,97.3
2019-02-25T01:02:03.247Z,97
2019-02-25T01:03:03.265Z,96.1
2019-02-25T01:04:02.878Z,97.3
2019-02-25T01:05:03.280Z,96.8
2019-02-25T01:06:03.582Z,98.2
2019-02-25T01:07:03.819Z,98.4
2019-02-25T01:08:03.493Z,98.4
2019-02-25T01:09:03.692Z,97.5
2019-02-25T01:10:04.042Z,98
2019-02-25T01:11:02.906Z,97.5
2019-02-25T01:12:03.295Z,97.3
2019-02-25T01:13:03.456Z,98.2
2019-02-25T01:14:03.246Z,98
2019-02-25T01:15:03.671Z,97.3
2019-02-25T01:16:03.661Z,96.6
2019-02-25T01:17:03.128Z,95.2
2019-02-25T01:18:03.600Z,94.5
2019-02-25T01:19:03.774Z,93.3
2019-02-25T01:20:03.183Z,92.6
2019-02-25T01:21:03.345Z,94.7
2019-02-25T01:22:02.867Z,94
2019-02-25T01:23:03.261Z,93.8
2019-02-25T01:24:02.706Z,95.4
2019-02-25T01:25:03.213Z,93.5
2019-02-25T01:26:03.629Z,94
2019-02-25T01:27:03.261Z,93.3
2019-02-25T01:28:03.104Z,94.7
2019-02-25T01:29:03.211Z,93.8
2019-02-25T01:30:03.346Z,93.3
2019-02-25T01:31:03.781Z,93.8
2019-02-25T01:32:02.910Z,93.5
2019-02-25T01:33:03.623Z,94.7
2019-02-25T01:34:03.924Z,95.2
2019-02-25T01:35:03.439Z,94
2019-02-25T01:36:03.670Z,93.1
2019-02-25T01:37:02.690Z,93.8
2019-02-25T01:38:03.180Z,92.6
2019-02-25T01:39:03.770Z,92.4
2019-02-25T01:40:03.258Z,91.4
2019-02-25T01:41:03.381Z,94
2019-02-25T01:42:02.931Z,91.4
2019-02-25T01:43:03.379Z,93.5
2019-02-25T01:44:03.027Z,93.1
2019-02-25T01:45:03.292Z,93.1
2019-02-25T01:46:03.530Z,93.1
2019-02-25T01:47:03.681Z,93.3
2019-02-25T01:48:03.509Z,92.1
2019-02-25T01:49:03.659Z,93.5
2019-02-25T01:50:03.401Z,94.5
2019-02-25T01:51:03.563Z,93.1
2019-02-25T01:52:03.219Z,94.7
2019-02-25T01:53:03.594Z,94.9
2019-02-25T01:54:03.936Z,95.2
2019-02-25T01:55:03.598Z,95.4
2019-02-25T01:56:02.751Z,94.9
2019-02-25T01:57:03.385Z,96.1
2019-02-25T01:58:03.609Z,97.3
2019-02-25T01:59:02.939Z,98
2019-02-25T02:00:03.141Z,97
2019-02-25T02:01:03.370Z,99.4
2019-02-25T02:02:03.187Z,98.9
2019-02-25T02:03:03.196Z,98.7
2019-02-25T02:04:03.260Z,98.7
2019-02-25T02:05:03.434Z,98
2019-02-25T02:06:03.004Z,97
2019-02-25T02:07:03.547Z,95.9
2019-02-25T02:08:02.949Z,97.7
2019-02-25T02:09:03.723Z,97.7
2019-02-25T02:10:02.960Z,97.7
2019-02-25T02:11:03.449Z,98.2
2019-02-25T02:12:03.745Z,98.2
2019-02-25T02:13:03.566Z,98.4
2019-02-25T02:14:03.477Z,98.2
2019-02-25T02:15:03.801Z,98.2
2019-02-25T02:16:03.189Z,96.6
2019-02-25T02:17:03.182Z,99.4
2019-02-25T02:18:02.919Z,98.9
2019-02-25T02:19:03.456Z,100.8
2019-02-25T02:20:03.011Z,101.2
2019-02-25T02:21:03.472Z,101.7
2019-02-25T02:22:03.060Z,101.2
2019-02-25T02:23:03.554Z,101
2019-02-25T02:24:03.120Z,102.4
2019-02-25T02:25:03.469Z,103.8
2019-02-25T02:26:03.813Z,102.6
2019-02-25T02:27:03.226Z,104.3
2019-02-25T02:28:03.502Z,103.8
2019-02-25T02:29:03.520Z,104
2019-02-25T02:30:03.551Z,103.1
2019-02-25T02:31:03.858Z,103.1
2019-02-25T02:32:03.423Z,103.1
2019-02-25T02:33:02.682Z,102.2
2019-02-25T02:34:03.646Z,103.6
2019-02-25T02:35:02.783Z,102.9
2019-02-25T02:36:03.553Z,102.6
2019-02-25T02:37:03.778Z,102.4
2019-02-25T02:38:03.468Z,102.6
2019-02-25T02:39:03.102Z,102.9
2019-02-25T02:40:03.615Z,102.4
2019-02-25T02:41:02.860Z,104.7
2019-02-25T02:42:03.513Z,100.8
2019-02-25T02:43:03.143Z,102.4
2019-02-25T02:44:03.528Z,99.8
2019-02-25T02:45:03.840Z,100.5
2019-02-25T02:46:03.200Z,101
2019-02-25T02:47:02.894Z,99.8
2019-02-25T02:48:03.353Z,100.1
2019-02-25T02:49:03.193Z,99.6
2019-02-25T02:50:03.766Z,99.4
2019-02-25T02:51:03.392Z,97.5
2019-02-25T02:52:03.766Z,98.4
2019-02-25T02:53:03.518Z,96.8
2019-02-25T02:54:03.561Z,96.8
2019-02-25T02:55:03.472Z,95.2
2019-02-25T02:56:03.768Z,94.2
2019-02-25T02:57:03.114Z,92.6
2019-02-25T02:58:03.802Z,91
2019-02-25T02:59:03.035Z,89.1
2019-02-25T03:00:03.955Z,88.2
2019-02-25T03:01:02.982Z,89.3
2019-02-25T03:02:03.518Z,87.9
2019-02-25T03:03:03.762Z,88.4
2019-02-25T03:04:03.287Z,87
2019-02-25T03:05:03.565Z,87.5
2019-02-25T03:06:03.284Z,85.4
2019-02-25T03:07:03.123Z,86.3
2019-02-25T03:08:03.797Z,87.2
2019-02-25T03:09:03.187Z,86.1
2019-02-25T03:10:03.111Z,87.5
2019-02-25T03:11:03.188Z,86.3
2019-02-25T03:12:03.122Z,88.2
2019-02-25T03:13:03.363Z,87
2019-02-25T03:14:02.766Z,90
2019-02-25T03:15:03.064Z,89.1
2019-02-25T03:16:03.620Z,89.3
2019-02-25T03:17:03.375Z,88.6
2019-02-25T03:18:03.115Z,88.4
2019-02-25T03:19:03.531Z,87.5
2019-02-25T03:20:03.910Z,89.1
2019-02-25T03:21:03.106Z,86.1
2019-02-25T03:22:03.704Z,86.8
2019-02-25T03:23:03.020Z,85.6
2019-02-25T03:24:03.086Z,85.6
2019-02-25T03:25:02.963Z,86.5
2019-02-25T03:26:03.825Z,85.6
2019-02-25T03:27:02.912Z,87.2
2019-02-25T03:28:03.655Z,87
2019-02-25T03:29:03.747Z,86.3
2019-02-25T03:30:03.280Z,88.4
2019-02-25T03:31:03.724Z,87.2
2019-02-25T03:32:03.109Z,89.8
2019-02-25T03:33:03.565Z,86.8
2019-02-25T03:34:03.459Z,88.6
2019-02-25T03:35:03.271Z,87.7
2019-02-25T03:36:03.823Z,88.6
2019-02-25T03:37:02.971Z,88.4
2019-02-25T03:38:03.687Z,89.8
2019-02-25T03:39:02.928Z,87.7
2019-02-25T03:40:03.737Z,89.1
2019-02-25T03:41:02.853Z,89.3
2019-02-25T03:42:03.344Z,87.5
2019-02-25T03:43:03.089Z,88.9
2019-02-25T03:44:03.515Z,88.6
2019-02-25T03:45:02.782Z,88.4
2019-02-25T03:46:03.438Z,87.9
2019-02-25T03:47:03.986Z,86.3
2019-02-25T03:48:03.221Z,86.5
2019-02-25T03:49:03.476Z,86.8
2019-02-25T03:50:03.271Z,85.8
2019-02-25T03:51:03.424Z,86.5
2019-02-25T03:52:03.180Z,86.3
2019-02-25T03:53:03.284Z,84.4
2019-02-25T03:54:03.755Z,84.9
2019-02-25T03:55:02.943Z,84.2
2019-02-25T03:56:02.767Z,84.4
2019-02-25T03:57:03.452Z,86.3
2019-02-25T03:58:03.607Z,84.9
2019-02-25T03:59:03.172Z,85.8
2019-02-25T04:00:03.719Z,86.1
2019-02-25T04:01:03.835Z,84.9
2019-02-25T04:02:03.088Z,86.1
2019-02-25T04:03:03.274Z,85.8
2019-02-25T04:04:03.019Z,86.1
2019-02-25T04:05:03.185Z,86.3
2019-02-25T04:06:02.963Z,87
2019-02-25T04:07:02.915Z,85.8
2019-02-25T04:08:03.471Z,87.2
2019-02-25T04:09:03.151Z,84.2
2019-02-25T04:10:03.515Z,87
2019-02-25T04:11:03.244Z,85.1
2019-02-25T04:12:03.435Z,84.7
2019-02-25T04:13:03.167Z,82.1
2019-02-25T04:14:03.648Z,84.9
2019-02-25T04:15:03.232Z,82.1
2019-02-25T04:16:03.494Z,84.7
2019-02-25T04:17:03.092Z,84.2
2019-02-25T04:18:03.073Z,84.9
2019-02-25T04:19:03.798Z,83.5
2019-02-25T04:20:03.226Z,85.4
2019-02-25T04:21:02.951Z,82.8
2019-02-25T04:22:03.272Z,84
2019-02-25T04:23:02.928Z,84.9
2019-02-25T04:24:03.368Z,84.2
2019-02-25T04:25:03.832Z,84.4
2019-02-25T04:26:03.091Z,85.1
2019-02-25T04:27:03.427Z,84
2019-02-25T04:28:03.182Z,84.4
2019-02-25T04:29:03.784Z,82.6
2019-02-25T04:30:03.737Z,83.3
2019-02-25T04:31:03.424Z,83.5
2019-02-25T04:32:02.587Z,82.6
2019-02-25T04:33:03.653Z,82.3
2019-02-25T04:34:03.786Z,81.2
2019-02-25T04:35:03.205Z,81.4
2019-02-25T04:36:03.174Z,82.3
2019-02-25T04:37:03.186Z,80.7
2019-02-25T04:38:03.630Z,81.2
2019-02-25T04:39:03.862Z,82.3
2019-02-25T04:40:03.068Z,81.9
2019-02-25T04:41:03.131Z,82.8
2019-02-25T04:42:03.035Z,82.1
2019-02-25T04:43:03.528Z,83
2019-02-25T04:44:03.135Z,84
2019-02-25T04:45:03.620Z,81.9
2019-02-25T04:46:02.866Z,83.7
2019-02-25T04:47:03.363Z,83.7
2019-02-25T04:48:02.884Z,85.1
2019-02-25T04:49:03.225Z,86.1
2019-02-25T04:50:03.607Z,84.9
2019-02-25T04:51:02.998Z,85.8
2019-02-25T04:52:03.778Z,87
2019-02-25T04:53:03.828Z,87.9
2019-02-25T04:54:03.788Z,87.5
2019-02-25T04:55:03.533Z,88.6
2019-02-25T04:56:03.380Z,87.7
2019-02-25T04:57:03.254Z,88.2
2019-02-25T04:58:03.614Z,87.9
2019-02-25T04:59:03.227Z,88.4
2019-02-25T05:00:03.817Z,88.9
2019-02-25T05:01:03.075Z,89.1
2019-02-25T05:02:03.135Z,89.8
2019-02-25T05:03:03.235Z,89.1
2019-02-25T05:04:02.971Z,89.8
2019-02-25T05:05:03.485Z,89.1
2019-02-25T05:06:03.554Z,89.8
2019-02-25T05:07:02.734Z,88.9
2019-02-25T05:08:03.452Z,88.9
2019-02-25T05:09:03.209Z,87.7
2019-02-25T05:10:03.190Z,89.6
2019-02-25T05:11:03.822Z,88.4
2019-02-25T05:12:03.072Z,89.8
2019-02-25T05:13:03.209Z,89.1
2019-02-25T05:14:03.502Z,90
2019-02-25T05:15:03.135Z,90
2019-02-25T05:16:03.473Z,87.2
2019-02-25T05:17:03.152Z,88.4
2019-02-25T05:18:03.820Z,88.4
2019-02-25T05:19:03.015Z,88.4
2019-02-25T05:20:03.428Z,90
2019-02-25T05:21:03.716Z,88.2
2019-02-25T05:22:03.215Z,87.9
2019-02-25T05:23:03.780Z,87.9
2019-02-25T05:24:03.215Z,87.2
2019-02-25T05:25:03.776Z,85.8
2019-02-25T05:26:02.515Z,85.4
2019-02-25T05:27:03.524Z,86.1
2019-02-25T05:28:03.862Z,87.2
2019-02-25T05:29:03.298Z,87.5
2019-02-25T05:30:03.944Z,88.4
2019-02-25T05:31:03.029Z,89.1
2019-02-25T05:32:03.404Z,87.5
2019-02-25T05:33:02.903Z,88.9
2019-02-25T05:34:02.814Z,87.7
2019-02-25T05:35:03.791Z,89.3
2019-02-25T05:36:02.981Z,90.7
2019-02-25T05:37:03.763Z,88.6
2019-02-25T05:38:04.036Z,89.6
2019-02-25T05:39:03.749Z,89.8
2019-02-25T05:40:03.062Z,90
2019-02-25T05:41:02.886Z,89.6
2019-02-25T05:42:03.541Z,89.8
2019-02-25T05:43:03.838Z,90.3
2019-02-25T05:44:02.972Z,91.2
2019-02-25T05:45:03.290Z,88.9
2019-02-25T05:46:02.834Z,91.4
2019-02-25T05:47:03.062Z,90
2019-02-25T05:48:02.807Z,90.5
2019-02-25T05:49:03.524Z,90.3
2019-02-25T05:50:03.024Z,89.3
2019-02-25T05:51:03.649Z,88.9
2019-02-25T05:52:03.766Z,89.3
2019-02-25T05:53:03.284Z,88.2
2019-02-25T05:54:03.517Z,87.5
2019-02-25T05:55:03.782Z,88.9
2019-02-25T05:56:03.549Z,87.2
2019-02-25T05:57:03.177Z,89.6
2019-02-25T05:58:03.323Z,89.3
2019-02-25T05:59:03.897Z,88.9
2019-02-25T06:00:03.082Z,89.6
2019-02-25T06:01:03.522Z,89.3
2019-02-25T06:02:05.711Z,88.4
2019-02-25T06:03:04.001Z,89.3
2019-02-25T06:04:03.069Z,87.5
2019-02-25T06:05:03.753Z,89.1
2019-02-25T06:06:03.113Z,90
2019-02-25T06:07:03.462Z,90
2019-02-25T06:08:03.554Z,89.1
2019-02-25T06:09:03.458Z,90
2019-02-25T06:10:03.545Z,91
2019-02-25T06:11:03.287Z,89.8
2019-02-25T06:12:02.988Z,91
2019-02-25T06:13:03.393Z,91.4
2019-02-25T06:14:03.908Z,91.9
2019-02-25T06:15:03.483Z,92.8
2019-02-25T06:16:02.978Z,91.7
2019-02-25T06:17:03.426Z,92.4
2019-02-25T06:18:02.968Z,92.1
2019-02-25T06:19:03.384Z,92.8
2019-02-25T06:20:03.093Z,94.5
2019-02-25T06:21:03.205Z,92.4
2019-02-25T06:22:03.879Z,93.3
2019-02-25T06:23:03.608Z,94.9
2019-02-25T06:24:03.777Z,94.7
2019-02-25T06:25:03.420Z,94.9
2019-02-25T06:26:03.532Z,95.6
2019-02-25T06:27:03.359Z,96.3
2019-02-25T06:28:03.714Z,94.5
2019-02-25T06:29:02.958Z,93.3
2019-02-25T06:30:03.680Z,93.8
2019-02-25T06:31:04.000Z,94.2
2019-02-25T06:32:03.158Z,92.8
2019-02-25T06:33:03.161Z,95.9
2019-02-25T06:34:03.305Z,93.8
2019-02-25T06:35:03.206Z,96.3
2019-02-25T06:36:03.355Z,94.5
2019-02-25T06:37:03.837Z,94.5
2019-02-25T06:38:03.476Z,94.2
2019-02-25T06:39:03.751Z,94
2019-02-25T06:40:03.587Z,94
2019-02-25T06:41:03.907Z,93.5
2019-02-25T06:42:03.442Z,92.8
2019-02-25T06:43:03.452Z,94.9
2019-02-25T06:44:03.305Z,93.3
2019-02-25T06:45:03.945Z,92.8
2019-02-25T06:46:03.537Z,92.8
2019-02-25T06:47:03.745Z,93.5
2019-02-25T06:48:03.669Z,94
2019-02-25T06:49:03.670Z,97.5
2019-02-25T06:50:03.371Z,96.1
2019-02-25T06:51:03.846Z,97.7
2019-02-25T06:52:03.167Z,99.1
2019-02-25T06:53:03.554Z,98.4
2019-02-25T06:54:03.186Z,98
2019-02-25T06:55:03.483Z,99.6
2019-02-25T06:56:03.080Z,97.5
2019-02-25T06:57:03.644Z,98.4
2019-02-25T06:58:02.954Z,97.5
2019-02-25T06:59:03.761Z,98
2019-02-25T07:00:03.262Z,98.2
2019-02-25T07:01:03.690Z,99.8
2019-02-25T07:02:03.077Z,100.3
2019-02-25T07:03:04.005Z,101.5
2019-02-25T07:04:03.494Z,99.6
2019-02-25T07:05:03.257Z,100.3
2019-02-25T07:06:03.680Z,100.5
2019-02-25T07:07:03.155Z,99.6
2019-02-25T07:08:03.322Z,99.4
2019-02-25T07:09:02.591Z,100.1
2019-02-25T07:10:03.139Z,99.8
2019-02-25T07:11:03.684Z,99.8
2019-02-25T07:12:03.839Z,99.4
2019-02-25T07:13:03.666Z,100.3
2019-02-25T07:14:03.646Z,100.1
2019-02-25T07:15:03.384Z,100.1
2019-02-25T07:16:03.753Z,98
2019-02-25T07:17:03.301Z,99.4
2019-02-25T07:18:03.824Z,98.2
2019-02-25T07:19:03.544Z,98
2019-02-25T07:20:03.721Z,99.4
2019-02-25T07:21:03.476Z,98.2
2019-02-25T07:22:02.874Z,98.7
2019-02-25T07:23:03.706Z,98
2019-02-25T07:24:03.138Z,97
2019-02-25T07:25:03.627Z,97.3
2019-02-25T07:26:03.773Z,97
2019-02-25T07:27:03.454Z,98.2
2019-02-25T07:28:03.140Z,96.8
2019-02-25T07:29:03.770Z,98.2
2019-02-25T07:30:02.882Z,97.7
2019-02-25T07:31:03.304Z,98.4
2019-02-25T07:32:03.120Z,96.1
2019-02-25T07:33:03.624Z,97.5
2019-02-25T07:34:03.067Z,94.9
2019-02-25T07:35:03.398Z,97
2019-02-25T07:36:03.085Z,96.6
2019-02-25T07:37:03.047Z,96.8
2019-02-25T07:38:02.848Z,96.6
2019-02-25T07:39:03.206Z,97.3
2019-02-25T07:40:04.035Z,97
2019-02-25T07:41:03.384Z,96.6
2019-02-25T07:42:02.864Z,96.3
2019-02-25T07:43:03.553Z,96.8
2019-02-25T07:44:03.259Z,96.1
2019-02-25T07:45:03.216Z,94
2019-02-25T07:46:03.075Z,95.9
2019-02-25T07:47:03.473Z,94.2
2019-02-25T07:48:02.939Z,95.2
2019-02-25T07:49:03.163Z,95.4
2019-02-25T07:50:03.508Z,92.8
2019-02-25T07:51:02.912Z,92.1
2019-02-25T07:52:03.249Z,92.4
2019-02-25T07:53:03.018Z,92.4
2019-02-25T07:54:03.678Z,91.9
2019-02-25T07:55:03.174Z,93.8
2019-02-25T07:56:03.454Z,92.1
2019-02-25T07:57:03.906Z,94
2019-02-25T07:58:02.970Z,92.1
2019-02-25T07:59:03.464Z,92.8
2019-02-25T08:00:02.809Z,91
2019-02-25T08:01:03.919Z,91.4
2019-02-25T08:02:03.501Z,90
2019-02-25T08:03:02.909Z,92.4
2019-02-25T08:04:03.505Z,89.8
2019-02-25T08:05:03.858Z,92.4
2019-02-25T08:06:03.073Z,91
2019-02-25T08:07:03.079Z,91
2019-02-25T08:08:02.984Z,91.7
2019-02-25T08:09:03.649Z,91.7
2019-02-25T08:10:03.105Z,91.2
2019-02-25T08:11:03.387Z,91.9
2019-02-25T08:12:02.897Z,91
2019-02-25T08:13:03.225Z,90.3
2019-02-25T08:14:03.158Z,92.1
2019-02-25T08:15:03.870Z,89.3
2019-02-25T08:16:03.861Z,91.4
2019-02-25T08:17:04.882Z,91
2019-02-25T08:18:03.071Z,93.8
2019-02-25T08:19:03.370Z,92.1
2019-02-25T08:20:03.216Z,92.6
2019-02-25T08:21:03.624Z,94.7
2019-02-25T08:22:02.898Z,93.8
2019-02-25T08:23:03.650Z,92.8
2019-02-25T08:24:03.979Z,92.6
2019-02-25T08:25:03.455Z,94
2019-02-25T08:26:03.522Z,92.4
2019-02-25T08:27:03.372Z,93.3
2019-02-25T08:28:03.817Z,93.3
2019-02-25T08:29:02.961Z,93.3
2019-02-25T08:30:03.973Z,93.5
2019-02-25T08:31:03.119Z,93.3
2019-02-25T08:32:03.570Z,93.5
2019-02-25T08:33:03.070Z,93.3
2019-02-25T08:34:03.261Z,93.1
2019-02-25T08:35:04.088Z,92.1
2019-02-25T08:36:02.354Z,92.6
2019-02-25T08:37:03.151Z,92.8
2019-02-25T08:38:03.121Z,94.7
2019-02-25T08:39:04.025Z,94
2019-02-25T08:40:03.340Z,96.1
2019-02-25T08:41:04.081Z,94.9
2019-02-25T08:42:03.071Z,98.2
2019-02-25T08:43:03.469Z,96.6
2019-02-25T08:44:02.798Z,97.7
2019-02-25T08:45:03.651Z,97
2019-02-25T08:46:02.982Z,98.7
2019-02-25T08:47:03.154Z,96.6
2019-02-25T08:48:03.122Z,96.1
2019-02-25T08:49:03.558Z,96.3
2019-02-25T08:50:03.769Z,95.9
2019-02-25T08:51:03.356Z,96.1
2019-02-25T08:52:02.835Z,96.1
2019-02-25T08:53:03.665Z,97
2019-02-25T08:54:03.624Z,96.8
2019-02-25T08:55:03.543Z,96.1
2019-02-25T08:56:03.295Z,96.3
2019-02-25T08:57:03.482Z,94.9
2019-02-25T08:58:03.202Z,96.6
2019-02-25T08:59:03.192Z,97.7
2019-02-25T09:00:03.540Z,96.1
2019-02-25T09:01:03.727Z,97.5
2019-02-25T09:02:03.334Z,97.5
2019-02-25T09:03:02.949Z,97.3
2019-02-25T09:04:02.921Z,95.9
2019-02-25T09:05:02.962Z,98.2
2019-02-25T09:06:03.578Z,96.1
2019-02-25T09:07:02.968Z,96.6
2019-02-25T09:08:02.987Z,97
2019-02-25T09:09:03.981Z,94.5
2019-02-25T09:10:03.722Z,94.5
2019-02-25T09:11:02.768Z,94.9
2019-02-25T09:12:03.112Z,94.7
2019-02-25T09:13:03.225Z,94.2
2019-02-25T09:14:03.251Z,96.1
2019-02-25T09:15:03.450Z,92.1
2019-02-25T09:16:03.288Z,94.7
2019-02-25T09:17:03.353Z,93.1
2019-02-25T09:18:03.142Z,93.3
2019-02-25T09:19:02.921Z,92.4
2019-02-25T09:20:03.723Z,92.1
2019-02-25T09:21:03.741Z,92.4
2019-02-25T09:22:03.526Z,92.6
2019-02-25T09:23:03.048Z,93.3
2019-02-25T09:24:03.496Z,91.9
2019-02-25T09:25:03.807Z,93.5
2019-02-25T09:26:03.048Z,91.9
2019-02-25T09:27:03.785Z,91.2
2019-02-25T09:28:03.073Z,90.5
2019-02-25T09:29:03.698Z,91
2019-02-25T09:30:03.298Z,89.6
2019-02-25T09:31:05.955Z,91
2019-02-25T09:32:03.297Z,89.3
2019-02-25T09:33:03.809Z,91
2019-02-25T09:34:03.252Z,90.5
2019-02-25T09:35:03.608Z,89.3
2019-02-25T09:36:03.480Z,88.9
2019-02-25T09:37:03.238Z,89.6
2019-02-25T09:38:03.314Z,87.9
2019-02-25T09:39:03.827Z,86.3
2019-02-25T09:40:03.325Z,86.3
2019-02-25T09:41:03.522Z,85.6
2019-02-25T09:42:03.288Z,85.6
2019-02-25T09:43:03.582Z,85.1
2019-02-25T09:44:03.183Z,85.6
2019-02-25T09:45:03.490Z,85.1
2019-02-25T09:46:03.012Z,86.8
2019-02-25T09:47:05.429Z,85.6
2019-02-25T09:48:02.940Z,86.5
2019-02-25T09:49:03.690Z,87.2
2019-02-25T09:50:03.222Z,86.3
2019-02-25T09:51:03.565Z,86.3
2019-02-25T09:52:02.956Z,86.3
2019-02-25T09:53:03.428Z,85.6
2019-02-25T09:54:03.362Z,86.3
2019-02-25T09:55:03.618Z,87
2019-02-25T09:56:03.146Z,87.2
2019-02-25T09:57:03.684Z,85.6
2019-02-25T09:58:03.216Z,86.8
2019-02-25T09:59:03.478Z,86.5
2019-02-25T10:00:03.082Z,84.9
2019-02-25T10:01:03.019Z,84.7
2019-02-25T10:02:03.097Z,85.6
2019-02-25T10:03:03.358Z,85.8
2019-02-25T10:04:03.155Z,85.1
2019-02-25T10:05:04.031Z,86.8
2019-02-25T10:06:03.143Z,84.4
2019-02-25T10:07:03.708Z,84.4
2019-02-25T10:08:03.413Z,85.4
2019-02-25T10:09:03.544Z,86.8
2019-02-25T10:10:03.108Z,86.1
2019-02-25T10:11:03.437Z,87.9
2019-02-25T10:12:03.220Z,86.3
2019-02-25T10:13:02.155Z,87.9
2019-02-25T10:14:02.912Z,88.2
2019-02-25T10:15:05.339Z,85.4
2019-02-25T10:16:02.856Z,86.1
2019-02-25T10:17:03.091Z,86.3
2019-02-25T10:18:03.791Z,84.2
2019-02-25T10:19:03.421Z,85.4
2019-02-25T10:20:03.794Z,85.8
2019-02-25T10:21:03.525Z,84.9
2019-02-25T10:22:04.222Z,85.4
2019-02-25T10:23:03.400Z,86.1
2019-02-25T10:24:03.696Z,84.4
2019-02-25T10:25:03.380Z,87.2
2019-02-25T10:26:03.691Z,86.3
2019-02-25T10:27:02.792Z,86.3
2019-02-25T10:28:03.742Z,87.9
2019-02-25T10:29:03.225Z,88.2
2019-02-25T10:30:04.422Z,87.5
2019-02-25T10:31:03.482Z,88.2
2019-02-25T10:32:06.834Z,87.5
2019-02-25T10:33:02.914Z,88.2
2019-02-25T10:34:03.985Z,87.2
2019-02-25T10:35:04.005Z,87.7
2019-02-25T10:36:03.439Z,85.4
2019-02-25T10:37:03.868Z,87
2019-02-25T10:38:03.466Z,85.6
2019-02-25T10:39:03.600Z,85.4
2019-02-25T10:40:03.560Z,86.8
2019-02-25T10:41:03.229Z,86.5
2019-02-25T10:42:03.831Z,85.1
2019-02-25T10:43:03.979Z,86.8
2019-02-25T10:44:08.718Z,85.8
2019-02-25T10:45:10.940Z,87
2019-02-25T10:46:03.121Z,86.5
2019-02-25T10:47:03.553Z,84.9
2019-02-25T10:48:03.211Z,84.2
2019-02-25T10:49:12.035Z,84.4
2019-02-25T10:50:07.566Z,84.4
2019-02-25T10:51:13.548Z,83.5
2019-02-25T10:52:03.040Z,85.6
2019-02-25T10:53:04.054Z,83.7
2019-02-25T10:54:03.605Z,85.8
2019-02-25T10:55:03.210Z,86.3
2019-02-25T10:56:03.638Z,85.1
2019-02-25T10:57:02.977Z,85.6
2019-02-25T10:58:03.995Z,86.3
2019-02-25T10:59:08.405Z,86.8
2019-02-25T11:00:13.353Z,88.4
2019-02-25T11:01:02.857Z,89.1
2019-02-25T11:02:03.286Z,87.9
2019-02-25T11:03:03.155Z,88.9
2019-02-25T11:04:03.331Z,88.6
2019-02-25T11:05:03.878Z,88.6
2019-02-25T11:06:03.578Z,90
2019-02-25T11:07:09.860Z,88.9
2019-02-25T11:08:11.965Z,89.6
2019-02-25T11:09:03.539Z,90.7
2019-02-25T11:10:02.986Z,89.6
2019-02-25T11:11:03.646Z,87.5
2019-02-25T11:12:03.897Z,88.6
2019-02-25T11:13:04.549Z,87.9
2019-02-25T11:14:09.325Z,91.2
2019-02-25T11:15:12.010Z,89.3
2019-02-25T11:16:03.039Z,91
2019-02-25T11:17:03.194Z,92.1
2019-02-25T11:18:02.970Z,91.7
2019-02-25T11:19:03.347Z,94.2
2019-02-25T11:20:05.965Z,92.8
2019-02-25T11:21:10.727Z,92.6
2019-02-25T11:22:03.010Z,92.6
2019-02-25T11:23:03.226Z,91.7
2019-02-25T11:24:02.962Z,89.3
2019-02-25T11:25:03.422Z,89.6
2019-02-25T11:26:03.799Z,87.5
2019-02-25T11:27:07.586Z,88.2
2019-02-25T11:28:24.968Z,87.9
2019-02-25T11:29:07.229Z,88.2
2019-02-25T11:30:03.885Z,88.2
2019-02-25T11:31:03.664Z,87.7
2019-02-25T11:32:03.569Z,87.9
2019-02-25T11:33:03.166Z,90.5
2019-02-25T11:34:08.257Z,88.6
2019-02-25T11:35:11.317Z,91.4
2019-02-25T11:36:03.385Z,91.7
2019-02-25T11:37:02.995Z,91
2019-02-25T11:38:03.196Z,92.6
2019-02-25T11:39:09.772Z,92.4
2019-02-25T11:40:04.614Z,91.7
2019-02-25T11:41:11.436Z,93.1
2019-02-25T11:42:13.452Z,90
2019-02-25T11:43:03.802Z,90.5
2019-02-25T11:44:03.944Z,90.7
2019-02-25T11:45:04.794Z,90.7
2019-02-25T11:46:03.216Z,91
2019-02-25T11:47:03.244Z,92.8
2019-02-25T11:48:03.794Z,92.1
2019-02-25T11:49:03.167Z,93.3
2019-02-25T11:50:03.521Z,94.5
2019-02-25T11:51:03.008Z,93.5
2019-02-25T11:52:03.711Z,93.3
2019-02-25T11:53:03.002Z,95.2
2019-02-25T11:54:03.721Z,93.5
2019-02-25T11:55:03.159Z,94.9
2019-02-25T11:56:03.775Z,94
2019-02-25T11:57:03.099Z,92.8
2019-02-25T11:58:03.689Z,93.8
2019-02-25T11:59:03.301Z,92.1
2019-02-25T12:00:03.039Z,91.4
2019-02-25T12:01:03.498Z,89.8
2019-02-25T12:02:03.833Z,89.6
2019-02-25T12:03:03.450Z,89.3
2019-02-25T12:04:03.030Z,88.2
2019-02-25T12:05:03.007Z,88.6
2019-02-25T12:06:02.796Z,88.4
2019-02-25T12:07:03.244Z,87.9
2019-02-25T12:08:03.436Z,87.5
2019-02-25T12:09:03.436Z,87.9
2019-02-25T12:10:03.001Z,87.5
2019-02-25T12:11:03.050Z,87.7
2019-02-25T12:12:02.949Z,87
2019-02-25T12:13:03.228Z,86.8
2019-02-25T12:14:03.188Z,86.1
2019-02-25T12:15:03.507Z,85.1
2019-02-25T12:16:03.033Z,83.5
2019-02-25T12:17:03.073Z,85.4
2019-02-25T12:18:03.844Z,85.6
2019-02-25T12:19:03.262Z,87
2019-02-25T12:20:03.760Z,86.3
2019-02-25T12:21:03.203Z,86.1
2019-02-25T12:22:03.588Z,87.5
2019-02-25T12:23:03.043Z,88.9
2019-02-25T12:24:03.460Z,89.1
2019-02-25T12:25:02.998Z,89.6
2019-02-25T12:26:03.602Z,90.5
2019-02-25T12:27:03.865Z,91.4
2019-02-25T12:28:03.214Z,91.7
2019-02-25T12:29:11.358Z,91.7
2019-02-25T12:30:03.294Z,91.9
2019-02-25T12:31:03.854Z,91.7
2019-02-25T12:32:03.805Z,91.4
2019-02-25T12:33:03.607Z,92.6
2019-02-25T12:34:02.959Z,91
2019-02-25T12:35:03.338Z,91.4
2019-02-25T12:36:03.925Z,91.7
2019-02-25T12:37:03.234Z,91.4
2019-02-25T12:38:03.644Z,92.8
2019-02-25T12:39:02.884Z,93.3
2019-02-25T12:40:03.696Z,93.8
2019-02-25T12:41:03.769Z,93.5
2019-02-25T12:42:02.951Z,94.9
2019-02-25T12:43:03.758Z,94.7
2019-02-25T12:44:03.170Z,96.1
2019-02-25T12:45:03.559Z,93.8
2019-02-25T12:46:03.791Z,96.3
2019-02-25T12:47:02.878Z,95.6
2019-02-25T12:48:03.678Z,95.2
2019-02-25T12:49:03.053Z,95.2
2019-02-25T12:50:03.753Z,95.6
2019-02-25T12:51:03.120Z,94.7
2019-02-25T12:52:03.790Z,93.8
2019-02-25T12:53:03.017Z,94
2019-02-25T12:54:03.659Z,92.1
2019-02-25T12:55:04.013Z,95.9
2019-02-25T12:56:03.427Z,92.6
2019-02-25T12:57:03.549Z,92.8
2019-02-25T12:58:03.466Z,95.2
2019-02-25T12:59:05.565Z,93.1
2019-02-25T13:00:03.653Z,94.7
2019-02-25T13:01:03.630Z,94.7
2019-02-25T13:02:03.811Z,93.8
2019-02-25T13:03:03.171Z,94.2
2019-02-25T13:04:03.815Z,93.1
2019-02-25T13:05:03.481Z,93.5
2019-02-25T13:06:03.782Z,93.8
2019-02-25T13:07:03.148Z,94.2
2019-02-25T13:08:03.083Z,94.7
2019-02-25T13:09:01.794Z,94.7
2019-02-25T13:10:03.355Z,95.6
2019-02-25T13:11:03.552Z,95.9
2019-02-25T13:12:03.693Z,97.7
2019-02-25T13:13:03.263Z,97
2019-02-25T13:14:03.447Z,99.4
2019-02-25T13:16:03.450Z,97.5
2019-02-25T13:17:03.048Z,97.3
2019-02-25T13:17:13.556Z,98.4
2019-02-25T13:18:03.305Z,96.1
2019-02-25T13:19:03.725Z,95.9
2019-02-25T13:20:03.192Z,94.9
2019-02-25T13:21:03.755Z,94.7
2019-02-25T13:22:03.020Z,94.2